Time;durP1;ratioP1;P1;durP2;ratioP2;P2;SDS_P1;SDS_P2;PMS_P1;PMS_P2;Temp;Humidity;BMP_temperature;BMP_pressure;BME280_temperature;BME280_humidity;BME280_pressure;Samples;Min_cycle;Max_cycle;Signal;HPM_P1;HPM_P2
2022/05/17 00:01:33;58792.00;0.20;102.39;0.00;0.00;0.62;;;;;19.10;1.00;;;;;;2276423;61;1927;-85
2022/05/17 00:04:01;270072.00;0.90;466.47;48288.00;0.16;84.23;;;;;19.10;1.00;;;;;;2276212;61;1636;-85
2022/05/17 00:06:29;36198.00;0.12;63.31;0.00;0.00;0.62;;;;;19.20;1.00;;;;;;2276279;61;1059;-87
2022/05/17 00:08:57;65347.00;0.22;113.72;0.00;0.00;0.62;;;;;19.40;1.00;;;;;;2276332;61;1111;-88
2022/05/17 00:11:25;250085.00;0.83;432.10;91751.00;0.31;159.33;;;;;19.30;1.00;;;;;;2276373;61;1092;-84
2022/05/17 00:13:53;82313.00;0.27;143.03;0.00;0.00;0.62;;;;;19.60;1.00;;;;;;2276376;61;1260;-86
2022/05/17 00:16:20;0.00;0.00;0.62;0.00;0.00;0.62;;;;;19.50;1.00;;;;;;2276466;61;1117;-85
2022/05/17 00:18:47;128596.00;0.43;222.91;0.00;0.00;0.62;;;;;19.40;1.00;;;;;;2276386;61;997;-89
2022/05/17 00:21:15;327914.00;1.09;565.90;115452.00;0.38;200.24;;;;;19.50;1.00;;;;;;2276240;61;1997;-86
2022/05/17 00:23:42;38107.00;0.13;66.61;0.00;0.00;0.62;;;;;19.60;1.00;;;;;;2276305;61;1371;-86
2022/05/17 00:26:10;568552.00;1.90;979.95;113748.00;0.38;197.30;;;;;19.50;1.00;;;;;;2276381;61;1132;-86
2022/05/17 00:28:38;129826.00;0.43;225.03;29221.00;0.10;51.23;;;;;19.20;1.00;;;;;;2276379;61;1120;-85
2022/05/17 00:31:07;404838.00;1.35;698.12;96107.00;0.32;166.85;;;;;19.20;1.00;;;;;;2276427;61;1131;-87
2022/05/17 00:33:35;258123.00;0.86;445.92;0.00;0.00;0.62;;;;;19.20;1.00;;;;;;2276265;61;1717;-87
2022/05/17 00:36:03;20453.00;0.07;36.05;0.00;0.00;0.62;;;;;19.10;1.00;;;;;;2276408;61;1095;-85
2022/05/17 00:38:30;0.00;0.00;0.62;0.00;0.00;0.62;;;;;19.20;1.00;;;;;;2276296;61;1055;-85
2022/05/17 00:40:57;26757.00;0.09;46.97;0.00;0.00;0.62;;;;;19.20;1.00;;;;;;2276281;61;1532;-86
2022/05/17 00:44:42;155214.00;0.52;268.79;43595.00;0.15;76.11;;;;;19.30;1.00;;;;;;2276189;61;1936;-87
2022/05/17 00:46:21;175875.00;0.59;304.39;11279.00;0.04;20.16;;;;;19.00;1.00;;;;;;2276115;61;1351;-84
2022/05/17 00:48:50;49605.00;0.17;86.50;0.00;0.00;0.62;;;;;18.50;1.00;;;;;;2276225;61;1235;-86
2022/05/17 00:51:18;670197.00;2.23;1155.59;41103.00;0.14;71.80;;;;;18.50;1.00;;;;;;2276300;61;1875;-87
2022/05/17 00:53:47;26796.00;0.09;47.04;0.00;0.00;0.62;;;;;18.30;1.00;;;;;;2276238;61;1425;-85
2022/05/17 00:56:19;96738.00;0.32;167.94;0.00;0.00;0.62;;;;;18.40;1.00;;;;;;2276290;61;1669;-85
2022/05/17 00:58:54;91100.00;0.30;158.21;0.00;0.00;0.62;;;;;18.50;1.00;;;;;;2276186;61;1063;-85
2022/05/17 01:01:26;0.00;0.00;0.62;0.00;0.00;0.62;;;;;18.90;1.00;;;;;;2276273;61;1973;-86
2022/05/17 01:03:57;136342.00;0.45;236.26;0.00;0.00;0.62;;;;;19.00;1.00;;;;;;2276287;61;1377;-85
2022/05/17 01:06:27;0.00;0.00;0.62;0.00;0.00;0.62;;;;;19.00;1.00;;;;;;2276126;61;1801;-85
2022/05/17 01:08:54;22370.00;0.07;39.37;0.00;0.00;0.62;;;;;19.20;1.00;;;;;;2276335;61;1029;-85
2022/05/17 01:11:21;65033.00;0.22;113.18;0.00;0.00;0.62;;;;;19.40;1.00;;;;;;2276806;61;1544;-86
2022/05/17 01:16:34;76572.00;0.26;133.12;0.00;0.00;0.62;;;;;19.10;1.00;;;;;;2277049;61;661;-86
2022/05/17 01:19:02;327673.00;1.09;565.49;26635.00;0.09;46.76;;;;;19.10;1.00;;;;;;2276844;61;1139;-86
2022/05/17 01:21:32;46500.00;0.16;81.13;0.00;0.00;0.62;;;;;19.00;1.00;;;;;;2276827;61;2579;-86
2022/05/17 01:23:59;249595.00;0.83;431.25;0.00;0.00;0.62;;;;;18.80;1.00;;;;;;2276942;61;1285;-86
2022/05/17 01:26:29;29890.00;0.10;52.39;0.00;0.00;0.62;;;;;18.60;1.00;;;;;;2276935;61;1121;-87
2022/05/17 01:28:57;408849.00;1.36;705.02;48991.00;0.16;85.44;;;;;18.50;1.00;;;;;;2276773;61;920;-83
2022/05/17 01:31:26;212111.00;0.71;366.77;12318.00;0.04;21.96;;;;;18.30;1.00;;;;;;2276882;61;1521;-85
2022/05/17 01:33:53;349652.00;1.17;603.26;26762.00;0.09;46.98;;;;;18.10;1.00;;;;;;2276853;61;1337;-86
2022/05/17 01:36:22;58262.00;0.19;101.47;0.00;0.00;0.62;;;;;18.00;1.00;;;;;;2276901;61;1443;-86
2022/05/17 01:38:51;22946.00;0.08;40.37;0.00;0.00;0.62;;;;;18.20;1.00;;;;;;2276895;61;1222;-86
2022/05/17 01:41:20;87832.00;0.29;152.56;0.00;0.00;0.62;;;;;18.20;1.00;;;;;;2276866;61;1761;-87
2022/05/17 01:43:47;34525.00;0.12;60.41;0.00;0.00;0.62;;;;;17.90;1.00;;;;;;2276804;61;2001;-86
2022/05/17 01:46:14;102045.00;0.34;177.10;30239.00;0.10;53.00;;;;;17.90;1.00;;;;;;2276802;61;1126;-85
2022/05/17 01:48:41;83338.00;0.28;144.80;0.00;0.00;0.62;;;;;18.10;1.00;;;;;;2276860;61;1077;-86
2022/05/17 01:51:10;46211.00;0.15;80.63;0.00;0.00;0.62;;;;;18.30;1.00;;;;;;2276715;61;1894;-86
2022/05/17 01:53:37;198973.00;0.66;344.16;0.00;0.00;0.62;;;;;18.60;1.00;;;;;;2276746;61;1445;-87
2022/05/17 01:56:07;40260.00;0.13;70.34;0.00;0.00;0.62;;;;;18.70;1.00;;;;;;2276825;61;1106;-86
2022/05/17 01:58:35;12035.00;0.04;21.47;0.00;0.00;0.62;;;;;18.70;1.00;;;;;;2276807;61;1067;-86
2022/05/17 02:01:02;21552.00;0.07;37.96;0.00;0.00;0.62;;;;;18.90;1.00;;;;;;2276832;61;1070;-87
2022/05/17 02:03:30;244129.00;0.81;421.85;52106.00;0.17;90.83;;;;;18.80;1.00;;;;;;2276758;61;1927;-86
2022/05/17 02:05:56;39425.00;0.13;68.89;0.00;0.00;0.62;;;;;18.60;1.00;;;;;;2276697;61;1037;-86
2022/05/17 02:08:23;75288.00;0.25;130.90;0.00;0.00;0.62;;;;;18.30;1.00;;;;;;2276808;61;953;-85
2022/05/17 02:10:50;0.00;0.00;0.62;0.00;0.00;0.62;;;;;18.20;1.00;;;;;;2276747;61;1039;-87
2022/05/17 02:13:19;170626.00;0.57;295.34;0.00;0.00;0.62;;;;;18.20;1.00;;;;;;2276789;61;1373;-86
2022/05/17 02:15:47;43845.00;0.15;76.54;0.00;0.00;0.62;;;;;18.10;1.00;;;;;;2276679;61;2075;-87
2022/05/17 02:18:14;43273.00;0.14;75.55;0.00;0.00;0.62;;;;;18.00;1.00;;;;;;2276655;61;1045;-87
2022/05/17 02:20:40;87141.00;0.29;151.37;0.00;0.00;0.62;;;;;17.60;1.00;;;;;;2276680;61;1441;-87
2022/05/17 02:23:08;171910.00;0.57;297.56;0.00;0.00;0.62;;;;;17.50;1.00;;;;;;2276702;61;2008;-88
2022/05/17 02:25:36;0.00;0.00;0.62;0.00;0.00;0.62;;;;;17.30;1.00;;;;;;2276783;61;1070;-87
2022/05/17 02:28:04;123589.00;0.41;214.27;0.00;0.00;0.62;;;;;17.10;1.00;;;;;;2276735;61;1014;-85
2022/05/17 02:30:32;257652.00;0.86;445.11;12983.00;0.04;23.12;;;;;17.30;1.00;;;;;;2276713;61;1685;-86
2022/05/17 02:33:00;0.00;0.00;0.62;0.00;0.00;0.62;;;;;17.60;1.00;;;;;;2276636;61;1629;-87
2022/05/17 02:35:27;32179.00;0.11;56.35;0.00;0.00;0.62;;;;;17.50;1.00;;;;;;2276784;61;991;-87
2022/05/17 02:37:54;66074.00;0.22;114.98;0.00;0.00;0.62;;;;;17.60;1.00;;;;;;2276722;61;1623;-85
2022/05/17 02:40:21;14987.00;0.05;26.59;0.00;0.00;0.62;;;;;17.70;1.00;;;;;;2276677;61;908;-85
2022/05/17 02:42:48;0.00;0.00;0.62;0.00;0.00;0.62;;;;;17.60;1.00;;;;;;2276563;61;1996;-86
2022/05/17 02:45:15;0.00;0.00;0.62;0.00;0.00;0.62;;;;;17.30;1.00;;;;;;2276676;61;959;-86
2022/05/17 02:47:43;204686.00;0.68;353.99;51704.00;0.17;90.13;;;;;17.50;1.00;;;;;;2276586;61;1099;-84
2022/05/17 02:50:11;74479.00;0.25;129.50;0.00;0.00;0.62;;;;;17.70;1.00;;;;;;2276326;61;1082;-85
2022/05/17 02:52:38;0.00;0.00;0.62;0.00;0.00;0.62;;;;;17.90;1.00;;;;;;2276648;61;1401;-86
2022/05/17 02:55:07;154129.00;0.51;266.92;0.00;0.00;0.62;;;;;17.70;1.00;;;;;;2276690;61;1177;-85
2022/05/17 02:57:34;162067.00;0.54;280.60;23186.00;0.08;40.79;;;;;17.70;1.00;;;;;;2276669;61;935;-86
2022/05/17 03:00:01;116988.00;0.39;202.89;0.00;0.00;0.62;;;;;17.80;1.00;;;;;;2276674;61;1093;-84
2022/05/17 03:02:28;0.00;0.00;0.62;0.00;0.00;0.62;;;;;17.80;1.00;;;;;;2276549;61;2181;-87
2022/05/17 03:04:56;142445.00;0.47;246.79;23612.00;0.08;41.52;;;;;17.90;1.00;;;;;;2276587;61;1101;-86
2022/05/17 03:07:23;228981.00;0.76;395.80;9443.00;0.03;16.98;;;;;18.20;1.00;;;;;;2276546;61;1694;-86
2022/05/17 03:09:50;11879.00;0.04;21.20;0.00;0.00;0.62;;;;;18.00;1.00;;;;;;2276548;61;1122;-85
2022/05/17 03:12:17;0.00;0.00;0.62;0.00;0.00;0.62;;;;;18.10;1.00;;;;;;2276606;61;1402;-86
2022/05/17 03:14:44;165782.00;0.55;287.00;0.00;0.00;0.62;;;;;18.30;1.00;;;;;;2276640;61;1070;-86
2022/05/17 03:17:12;51571.00;0.17;89.90;0.00;0.00;0.62;;;;;18.40;1.00;;;;;;2276654;61;1058;-85
2022/05/17 03:19:40;126900.00;0.42;219.98;0.00;0.00;0.62;;;;;18.50;1.00;;;;;;2276633;61;1138;-85
2022/05/17 03:22:10;228148.00;0.76;394.36;94970.00;0.32;164.89;;;;;18.60;1.00;;;;;;2276488;61;2019;-86
2022/05/17 03:24:38;0.00;0.00;0.62;0.00;0.00;0.62;;;;;18.70;1.00;;;;;;2276526;61;1134;-84
2022/05/17 03:27:07;41339.00;0.14;72.20;0.00;0.00;0.62;;;;;18.40;1.00;;;;;;2276542;61;1082;-86
2022/05/17 03:29:34;0.00;0.00;0.62;0.00;0.00;0.62;;;;;18.50;1.00;;;;;;2276551;61;1567;-86
2022/05/17 03:32:01;0.00;0.00;0.62;0.00;0.00;0.62;;;;;18.50;1.00;;;;;;2276581;61;1416;-86
2022/05/17 03:34:28;35291.00;0.12;61.74;0.00;0.00;0.62;;;;;18.20;1.00;;;;;;2276312;61;1599;-84
2022/05/17 03:36:55;0.00;0.00;0.62;0.00;0.00;0.62;;;;;18.10;1.00;;;;;;2276478;61;1323;-86
2022/05/17 03:39:24;218103.00;0.73;377.08;0.00;0.00;0.62;;;;;18.00;1.00;;;;;;2276422;61;1551;-84
2022/05/17 03:41:51;0.00;0.00;0.62;0.00;0.00;0.62;;;;;18.20;1.00;;;;;;2276429;61;1513;-86
2022/05/17 03:44:17;129600.00;0.43;224.64;0.00;0.00;0.62;;;;;18.10;1.00;;;;;;2276384;61;1940;-86
2022/05/17 03:46:45;203625.00;0.68;352.16;0.00;0.00;0.62;;;;;17.90;1.00;;;;;;2276404;61;1149;-86
2022/05/17 03:49:11;41185.00;0.14;71.94;0.00;0.00;0.62;;;;;17.80;1.00;;;;;;2276458;61;990;-86
2022/05/17 03:51:38;318.00;0.00;1.17;0.00;0.00;0.62;;;;;17.90;1.00;;;;;;2276515;61;1304;-86
2022/05/17 03:54:06;162040.00;0.54;280.55;14615.00;0.05;25.94;;;;;18.10;1.00;;;;;;2276445;61;1042;-87
2022/05/17 03:56:34;63140.00;0.21;109.90;0.00;0.00;0.62;;;;;18.20;1.00;;;;;;2276410;61;1234;-87
2022/05/17 03:59:01;19267.00;0.06;34.00;0.00;0.00;0.62;;;;;18.10;1.00;;;;;;2276447;61;1027;-86
2022/05/17 04:01:28;225232.00;0.75;389.35;43612.00;0.15;76.14;;;;;18.00;1.00;;;;;;2276351;61;1057;-83
2022/05/17 04:03:55;120987.00;0.40;209.78;0.00;0.00;0.62;;;;;17.20;1.00;;;;;;2276356;61;1919;-87
2022/05/17 04:06:22;21557.00;0.07;37.97;0.00;0.00;0.62;;;;;17.00;1.00;;;;;;2276391;61;1111;-85
2022/05/17 04:08:49;0.00;0.00;0.62;0.00;0.00;0.62;;;;;17.20;1.00;;;;;;2276353;61;2266;-87
2022/05/17 04:11:16;105400.00;0.35;182.89;0.00;0.00;0.62;;;;;17.40;1.00;;;;;;2276370;61;1023;-87
2022/05/17 04:13:45;25546.00;0.09;44.87;0.00;0.00;0.62;;;;;17.50;1.00;;;;;;2276450;61;1400;-87
2022/05/17 04:16:12;512746.00;1.71;883.77;216303.00;0.72;373.98;;;;;17.50;1.00;;;;;;2276319;61;1071;-86
2022/05/17 04:18:39;49062.00;0.16;85.56;0.00;0.00;0.62;;;;;17.20;1.00;;;;;;2278807;40;3610;-87
2022/05/17 04:21:07;0.00;0.00;0.62;0.00;0.00;0.62;;;;;17.30;1.00;;;;;;2268322;61;980;-87
2022/05/17 04:23:34;17254.00;0.06;30.51;0.00;0.00;0.62;;;;;17.20;1.00;;;;;;2268253;61;1997;-87
2022/05/17 04:26:01;15917.00;0.05;28.20;0.00;0.00;0.62;;;;;17.20;1.00;;;;;;2268330;61;1106;-86
2022/05/17 04:28:28;71061.00;0.24;123.59;0.00;0.00;0.62;;;;;17.20;1.00;;;;;;2268328;61;1110;-86
2022/05/17 04:30:56;28884.00;0.10;50.65;0.00;0.00;0.62;;;;;17.50;1.00;;;;;;2268219;61;1024;-87
2022/05/17 04:33:24;3628.00;0.01;6.91;0.00;0.00;0.62;;;;;17.40;1.00;;;;;;2268191;61;1274;-84
2022/05/17 04:35:51;0.00;0.00;0.62;0.00;0.00;0.62;;;;;17.60;1.00;;;;;;2268207;61;1633;-86
2022/05/17 04:38:18;60875.00;0.20;105.99;0.00;0.00;0.62;;;;;17.50;1.00;;;;;;2268306;61;1060;-86
2022/05/17 04:40:45;0.00;0.00;0.62;0.00;0.00;0.62;;;;;17.20;1.00;;;;;;2268231;61;2214;-86
2022/05/17 04:43:12;47726.00;0.16;83.25;0.00;0.00;0.62;;;;;17.40;1.00;;;;;;2268206;61;2006;-85
2022/05/17 04:45:41;31949.00;0.11;55.96;0.00;0.00;0.62;;;;;17.60;1.00;;;;;;2268535;61;1592;-87
2022/05/17 04:48:10;9103.00;0.03;16.40;0.00;0.00;0.62;;;;;18.10;1.00;;;;;;2268887;61;1624;-84
2022/05/17 04:50:38;54969.00;0.18;95.78;0.00;0.00;0.62;;;;;18.30;1.00;;;;;;2268863;61;2036;-86
2022/05/17 04:53:06;0.00;0.00;0.62;0.00;0.00;0.62;;;;;18.70;1.00;;;;;;2268857;61;1756;-85
2022/05/17 04:55:33;14883.00;0.05;26.41;0.00;0.00;0.62;;;;;18.60;1.00;;;;;;2268815;61;1107;-86
2022/05/17 04:58:00;234277.00;0.78;404.91;8517.00;0.03;15.38;;;;;18.40;1.00;;;;;;2268928;61;1688;-86
2022/05/17 05:00:27;85602.00;0.29;148.71;0.00;0.00;0.62;;;;;18.20;1.00;;;;;;2268957;61;1000;-86
2022/05/17 05:02:55;351961.00;1.17;607.23;0.00;0.00;0.62;;;;;18.20;1.00;;;;;;2268800;61;1914;-86
2022/05/17 05:05:24;192036.00;0.64;332.21;0.00;0.00;0.62;;;;;18.50;1.00;;;;;;2268943;61;1008;-86
2022/05/17 05:07:51;0.00;0.00;0.62;0.00;0.00;0.62;;;;;18.90;1.00;;;;;;2268931;61;1052;-86
2022/05/17 05:10:19;0.00;0.00;0.62;0.00;0.00;0.62;;;;;19.10;1.00;;;;;;2268769;61;1122;-84
2022/05/17 05:12:46;0.00;0.00;0.62;0.00;0.00;0.62;;;;;19.00;1.00;;;;;;2268863;61;1391;-84
2022/05/17 05:15:13;13469.00;0.04;23.96;0.00;0.00;0.62;;;;;19.30;1.00;;;;;;2268779;61;1109;-86
2022/05/17 05:17:41;30583.00;0.10;53.59;0.00;0.00;0.62;;;;;19.50;1.00;;;;;;2268787;61;1111;-86
2022/05/17 05:20:12;99610.00;0.33;172.90;0.00;0.00;0.62;;;;;19.50;1.00;;;;;;2268827;61;1039;-85
2022/05/17 05:22:41;24348.00;0.08;42.80;0.00;0.00;0.62;;;;;19.30;1.00;;;;;;2268798;61;2054;-85
2022/05/17 05:25:09;197494.00;0.66;341.61;54328.00;0.18;94.67;;;;;18.80;1.00;;;;;;2268875;61;1214;-86
2022/05/17 05:27:38;101537.00;0.34;176.22;35082.00;0.12;61.38;;;;;18.70;1.00;;;;;;2268861;61;997;-87
2022/05/17 05:30:07;47528.00;0.16;82.91;0.00;0.00;0.62;;;;;18.90;1.00;;;;;;2268804;61;1523;-87
2022/05/17 05:32:34;42684.00;0.14;74.53;0.00;0.00;0.62;;;;;19.50;1.00;;;;;;2268783;61;1397;-85
2022/05/17 05:35:01;16008.00;0.05;28.36;0.00;0.00;0.62;;;;;19.50;1.00;;;;;;2268795;61;1530;-86
2022/05/17 05:37:28;67031.00;0.22;116.63;0.00;0.00;0.62;;;;;20.80;1.00;;;;;;2268779;61;1235;-87
2022/05/17 05:39:56;12877.00;0.04;22.93;0.00;0.00;0.62;;;;;22.50;1.00;;;;;;2268758;61;916;-86
2022/05/17 05:42:23;41821.00;0.14;73.04;0.00;0.00;0.62;;;;;23.50;1.00;;;;;;2268729;61;1461;-85
2022/05/17 05:44:50;107272.00;0.36;186.12;23610.00;0.08;41.52;;;;;24.70;1.00;;;;;;2268774;61;1949;-86
2022/05/17 05:47:17;0.00;0.00;0.62;0.00;0.00;0.62;;;;;25.80;1.00;;;;;;2268881;61;1140;-87
2022/05/17 05:49:44;0.00;0.00;0.62;0.00;0.00;0.62;;;;;27.30;1.00;;;;;;2268825;61;1126;-86
2022/05/17 05:52:10;0.00;0.00;0.62;0.00;0.00;0.62;;;;;28.00;1.00;;;;;;2268785;61;1370;-87
2022/05/17 05:54:37;0.00;0.00;0.62;0.00;0.00;0.62;;;;;28.80;1.00;;;;;;2268820;61;1053;-88
2022/05/17 05:57:06;0.00;0.00;0.62;0.00;0.00;0.62;;;;;29.70;1.00;;;;;;2268532;61;1227;-85
2022/05/17 05:59:33;152232.00;0.51;263.65;0.00;0.00;0.62;;;;;30.00;1.00;;;;;;2268618;61;1743;-88
2022/05/17 06:02:00;67351.00;0.22;117.18;0.00;0.00;0.62;;;;;30.70;1.00;;;;;;2268677;61;1309;-82
2022/05/17 06:04:28;0.00;0.00;0.62;0.00;0.00;0.62;;;;;30.80;1.00;;;;;;2268556;61;1999;-85
2022/05/17 06:06:56;0.00;0.00;0.62;0.00;0.00;0.62;;;;;31.10;1.00;;;;;;2268801;61;1038;-86
2022/05/17 06:09:24;57656.00;0.19;100.42;0.00;0.00;0.62;;;;;31.60;1.00;;;;;;2268645;61;1131;-85
2022/05/17 06:11:51;88993.00;0.30;154.57;0.00;0.00;0.62;;;;;32.10;1.00;;;;;;2268523;61;1678;-87
2022/05/17 06:14:20;134614.00;0.45;233.29;0.00;0.00;0.62;;;;;32.20;1.00;;;;;;2268699;61;1033;-87
2022/05/17 06:16:47;10916.00;0.04;19.54;0.00;0.00;0.62;;;;;32.10;1.00;;;;;;2268686;61;1138;-87
2022/05/17 06:19:14;0.00;0.00;0.62;0.00;0.00;0.62;;;;;32.20;1.00;;;;;;2268602;61;999;-86
2022/05/17 06:21:41;43474.00;0.14;75.90;0.00;0.00;0.62;;;;;32.30;1.00;;;;;;2268529;61;1374;-85
2022/05/17 06:24:09;72577.00;0.24;126.21;0.00;0.00;0.62;;;;;32.40;1.00;;;;;;2268683;61;1988;-87
2022/05/17 06:26:36;120439.00;0.40;208.84;0.00;0.00;0.62;;;;;32.30;1.00;;;;;;2268591;61;1003;-86
2022/05/17 06:29:04;24292.00;0.08;42.70;0.00;0.00;0.62;;;;;32.00;1.00;;;;;;2268663;61;1682;-87
2022/05/17 06:31:32;158033.00;0.53;273.65;58871.00;0.20;102.53;;;;;31.70;1.00;;;;;;2268652;61;1092;-87
2022/05/17 06:33:59;122194.00;0.41;211.87;0.00;0.00;0.62;;;;;31.70;1.00;;;;;;2268651;61;1221;-87
2022/05/17 06:36:26;33645.00;0.11;58.89;0.00;0.00;0.62;;;;;31.80;1.00;;;;;;2268429;61;1101;-87
2022/05/17 06:38:54;0.00;0.00;0.62;0.00;0.00;0.62;;;;;32.00;1.00;;;;;;2268541;61;1621;-87
2022/05/17 06:41:21;146523.00;0.49;253.81;0.00;0.00;0.62;;;;;32.90;1.00;;;;;;2268635;61;937;-86
2022/05/17 06:43:48;265278.00;0.88;458.22;97253.00;0.32;168.83;;;;;32.90;1.00;;;;;;2268573;61;1915;-86
2022/05/17 06:46:14;0.00;0.00;0.62;0.00;0.00;0.62;;;;;32.60;1.00;;;;;;2268643;61;1077;-87
2022/05/17 06:48:43;0.00;0.00;0.62;0.00;0.00;0.62;;;;;33.00;1.00;;;;;;2268644;61;1117;-86
2022/05/17 06:51:10;0.00;0.00;0.62;0.00;0.00;0.62;;;;;33.10;1.00;;;;;;2268698;61;1168;-86
2022/05/17 06:53:37;195019.00;0.65;337.35;0.00;0.00;0.62;;;;;33.50;1.00;;;;;;2268606;61;1416;-85
2022/05/17 06:56:06;163788.00;0.55;283.57;0.00;0.00;0.62;;;;;33.70;1.00;;;;;;2268624;61;944;-86
2022/05/17 06:58:33;0.00;0.00;0.62;0.00;0.00;0.62;;;;;33.90;1.00;;;;;;2268501;61;1138;-86
2022/05/17 07:01:00;119547.00;0.40;207.30;8434.00;0.03;15.24;;;;;33.80;1.00;;;;;;2268391;61;1048;-85
2022/05/17 07:03:27;0.00;0.00;0.62;0.00;0.00;0.62;;;;;33.60;1.00;;;;;;2268353;61;1986;-86
2022/05/17 07:05:56;0.00;0.00;0.62;0.00;0.00;0.62;;;;;33.60;1.00;;;;;;2301705;55;3735;-85
2022/05/17 07:08:23;14386.00;0.05;25.55;0.00;0.00;0.62;;;;;33.60;1.00;;;;;;2272150;61;2060;-85
2022/05/17 07:13:34;76307.00;0.25;132.66;0.00;0.00;0.62;;;;;33.40;1.00;;;;;;2272620;61;1419;-86
2022/05/17 07:16:02;77387.00;0.26;134.52;0.00;0.00;0.62;;;;;33.80;1.00;;;;;;2272524;61;1116;-84
2022/05/17 07:18:29;0.00;0.00;0.62;0.00;0.00;0.62;;;;;34.50;1.00;;;;;;2272582;61;1125;-86
2022/05/17 07:20:59;0.00;0.00;0.62;0.00;0.00;0.62;;;;;34.80;1.00;;;;;;2272599;61;1148;-86
2022/05/17 07:23:26;38738.00;0.13;67.70;0.00;0.00;0.62;;;;;34.30;1.00;;;;;;2272405;61;2309;-85
2022/05/17 07:25:55;0.00;0.00;0.62;0.00;0.00;0.62;;;;;34.80;1.00;;;;;;2272551;61;1132;-85
2022/05/17 07:28:24;118318.00;0.39;205.18;0.00;0.00;0.62;;;;;34.30;1.00;;;;;;2272530;61;1058;-86
2022/05/17 07:30:52;407943.00;1.36;703.46;80831.00;0.27;140.47;;;;;34.00;1.00;;;;;;2272346;61;898;-85
2022/05/17 07:33:20;28316.00;0.09;49.67;0.00;0.00;0.62;;;;;34.40;1.00;;;;;;2272493;61;1438;-83
2022/05/17 07:35:48;0.00;0.00;0.62;0.00;0.00;0.62;;;;;34.10;1.00;;;;;;2272374;61;1047;-85
2022/05/17 07:38:18;190236.00;0.63;329.11;0.00;0.00;0.62;;;;;34.10;1.00;;;;;;2272510;61;1030;-86
2022/05/17 07:40:45;115121.00;0.38;199.67;0.00;0.00;0.62;;;;;34.50;1.00;;;;;;2272518;61;1160;-87
2022/05/17 07:43:13;37250.00;0.12;65.13;0.00;0.00;0.62;;;;;34.50;1.00;;;;;;2272235;61;1338;-84
2022/05/17 07:45:40;127146.00;0.42;220.41;0.00;0.00;0.62;;;;;34.30;1.00;;;;;;2272594;61;1922;-85
2022/05/17 07:48:08;0.00;0.00;0.62;0.00;0.00;0.62;;;;;34.80;1.00;;;;;;2272203;61;1110;-85
2022/05/17 07:50:35;0.00;0.00;0.62;0.00;0.00;0.62;;;;;34.90;1.00;;;;;;2272423;61;1039;-85
2022/05/17 07:53:07;31819.00;0.11;55.73;0.00;0.00;0.62;;;;;34.70;1.00;;;;;;2272483;61;1311;-85
2022/05/17 07:55:37;0.00;0.00;0.62;0.00;0.00;0.62;;;;;35.30;1.00;;;;;;2272353;61;1133;-85
2022/05/17 07:58:04;0.00;0.00;0.62;0.00;0.00;0.62;;;;;34.90;1.00;;;;;;2272432;61;1119;-85
2022/05/17 08:00:32;108668.00;0.36;188.53;0.00;0.00;0.62;;;;;34.70;1.00;;;;;;2272446;61;1125;-87
2022/05/17 08:02:59;30834.00;0.10;54.03;0.00;0.00;0.62;;;;;34.40;1.00;;;;;;2272434;61;1419;-87
2022/05/17 08:05:26;10423.00;0.03;18.68;0.00;0.00;0.62;;;;;34.10;1.00;;;;;;2272358;61;2001;-87
2022/05/17 08:07:53;371325.00;1.24;640.51;45419.00;0.15;79.26;;;;;34.10;1.00;;;;;;2272343;61;1046;-87
2022/05/17 08:10:21;0.00;0.00;0.62;0.00;0.00;0.62;;;;;34.50;1.00;;;;;;2272284;61;1014;-86
2022/05/17 08:12:50;19669.00;0.07;34.70;0.00;0.00;0.62;;;;;34.40;1.00;;;;;;2272052;61;1356;-86
2022/05/17 08:15:19;9312.00;0.03;16.76;0.00;0.00;0.62;;;;;34.70;1.00;;;;;;2272391;61;1219;-86
2022/05/17 08:17:46;55492.00;0.18;96.68;0.00;0.00;0.62;;;;;34.20;1.00;;;;;;2272388;61;1107;-85
2022/05/17 08:20:13;345283.00;1.15;595.75;105210.00;0.35;182.56;;;;;34.00;1.00;;;;;;2272247;61;937;-87
2022/05/17 08:22:41;0.00;0.00;0.62;0.00;0.00;0.62;;;;;34.40;1.00;;;;;;2272360;61;1565;-85
2022/05/17 08:27:56;0.00;0.00;0.62;0.00;0.00;0.62;;;;;33.60;1.00;;;;;;2272321;61;787;-85
2022/05/17 08:30:26;111231.00;0.37;192.95;0.00;0.00;0.62;;;;;32.80;1.00;;;;;;2272388;61;1124;-87
2022/05/17 08:35:42;36901.00;0.12;64.53;0.00;0.00;0.62;;;;;32.70;1.00;;;;;;2272499;61;661;-87
2022/05/17 08:38:11;179772.00;0.60;311.10;0.00;0.00;0.62;;;;;32.70;1.00;;;;;;2272385;61;1129;-87
2022/05/17 08:40:53;0.00;0.00;0.62;0.00;0.00;0.62;;;;;33.30;1.00;;;;;;2272351;61;1197;-87
2022/05/17 08:43:29;205438.00;0.68;355.28;0.00;0.00;0.62;;;;;33.70;1.00;;;;;;2272221;61;1483;-87
2022/05/17 08:46:42;113611.00;0.38;197.06;0.00;0.00;0.62;;;;;33.40;1.00;;;;;;2272172;61;1939;-85
2022/05/17 08:49:19;591380.00;1.97;1019.34;106367.00;0.35;184.56;;;;;33.30;1.00;;;;;;2270814;61;1150;-85
2022/05/17 08:51:53;560605.00;1.87;966.24;69204.00;0.23;120.38;;;;;33.70;1.00;;;;;;2272358;61;1349;-83
2022/05/17 08:54:24;817355.00;2.72;1411.41;56927.00;0.19;99.16;;;;;33.50;1.00;;;;;;2272318;61;1146;-84
2022/05/17 08:56:57;505554.00;1.69;871.39;16043.00;0.05;28.42;;;;;33.40;1.00;;;;;;2272160;61;1493;-84
2022/05/17 08:59:26;43321.00;0.14;75.63;0.00;0.00;0.62;;;;;32.90;1.00;;;;;;2272329;61;1339;-85
2022/05/17 09:02:01;237165.00;0.79;409.87;75418.00;0.25;131.12;;;;;33.00;1.00;;;;;;2272153;61;1265;-86
2022/05/17 09:05:01;274738.00;0.92;474.49;67536.00;0.23;117.50;;;;;32.40;1.00;;;;;;2272213;61;2001;-86
2022/05/17 09:07:32;570859.00;1.90;983.93;61938.00;0.21;107.83;;;;;31.90;1.00;;;;;;2272209;61;1134;-86
2022/05/17 09:10:04;330643.00;1.10;570.59;21443.00;0.07;37.77;;;;;31.20;1.00;;;;;;2272230;61;1745;-87
2022/05/17 09:12:42;553549.00;1.85;954.08;67325.00;0.22;117.14;;;;;31.10;1.00;;;;;;2272232;61;1462;-86
2022/05/17 09:15:14;705978.00;2.35;1217.61;56587.00;0.19;98.58;;;;;30.90;1.00;;;;;;2272236;61;1313;-87
2022/05/17 09:17:41;629678.00;2.10;1085.49;26017.00;0.09;45.69;;;;;30.70;1.00;;;;;;2272383;61;1078;-86
2022/05/17 09:20:10;478438.00;1.59;824.71;25285.00;0.08;44.42;;;;;31.20;1.00;;;;;;2272278;61;1665;-86
2022/05/17 09:22:37;541285.00;1.80;932.94;0.00;0.00;0.62;;;;;31.00;1.00;;;;;;2272227;61;1303;-86
2022/05/17 09:25:17;605104.00;2.02;1043.03;84118.00;0.28;146.15;;;;;31.30;1.00;;;;;;2272050;61;2001;-85
2022/05/17 09:27:49;646830.00;2.16;1115.15;5911.00;0.02;10.86;;;;;31.10;1.00;;;;;;2272285;61;1132;-85
2022/05/17 09:30:31;593801.00;1.98;1023.52;71400.00;0.24;124.18;;;;;31.10;1.00;;;;;;2272171;61;1063;-87
2022/05/17 09:33:02;1088323.00;3.63;1889.55;97055.00;0.32;168.49;;;;;30.70;1.00;;;;;;2272743;61;1390;-86
2022/05/17 09:35:30;731491.00;2.44;1261.89;0.00;0.00;0.62;;;;;30.40;1.00;;;;;;2272846;61;1030;-88
2022/05/17 09:38:07;506711.00;1.69;873.38;15719.00;0.05;27.86;;;;;30.60;1.00;;;;;;2272852;61;1164;-90
2022/05/17 09:40:38;631217.00;2.10;1088.15;15299.00;0.05;27.13;;;;;31.20;1.00;;;;;;2272892;61;1160;-86
2022/05/17 09:43:08;613959.00;2.05;1058.33;0.00;0.00;0.62;;;;;31.70;1.00;;;;;;2272873;61;1430;-87
2022/05/17 09:45:49;874125.00;2.91;1510.72;30517.00;0.10;53.48;;;;;31.50;1.00;;;;;;2272841;61;1931;-88
2022/05/17 09:48:30;353751.00;1.18;610.31;28115.00;0.09;49.32;;;;;31.50;1.00;;;;;;2272947;61;1067;-85
2022/05/17 09:53:44;305586.00;1.02;527.52;97399.00;0.32;169.08;;;;;31.80;1.00;;;;;;2272853;61;1452;-90
2022/05/17 09:56:12;281399.00;0.94;485.94;0.00;0.00;0.62;;;;;32.10;1.00;;;;;;2272807;61;1484;-87
2022/05/17 09:58:41;596267.00;1.99;1027.77;18329.00;0.06;32.38;;;;;31.90;1.00;;;;;;2272835;61;1039;-88
2022/05/17 10:01:15;339421.00;1.13;585.68;0.00;0.00;0.62;;;;;31.50;1.00;;;;;;2272723;61;1082;-86
2022/05/17 10:03:44;217446.00;0.72;375.95;2217.00;0.01;4.46;;;;;31.20;1.00;;;;;;2272729;61;1306;-88
2022/05/17 10:06:17;348045.00;1.16;600.50;0.00;0.00;0.62;;;;;31.00;1.00;;;;;;2272568;61;1932;-87
2022/05/17 10:08:57;740633.00;2.47;1277.78;122960.00;0.41;213.19;;;;;31.00;1.00;;;;;;2272770;61;1078;-88
2022/05/17 10:11:27;538265.00;1.79;927.73;8718.00;0.03;15.73;;;;;30.80;1.00;;;;;;2272845;61;1106;-86
2022/05/17 10:14:04;710538.00;2.37;1225.52;12632.00;0.04;22.51;;;;;30.50;1.00;;;;;;2272687;61;1717;-87
2022/05/17 10:16:38;817090.00;2.72;1410.95;25646.00;0.09;45.05;;;;;30.50;1.00;;;;;;2272627;61;1189;-88
2022/05/17 10:19:18;614956.00;2.05;1060.05;44126.00;0.15;77.03;;;;;30.40;1.00;;;;;;2272646;61;1057;-87
2022/05/17 10:21:49;646462.00;2.15;1114.52;64475.00;0.21;112.21;;;;;30.30;1.00;;;;;;2272668;61;1450;-87
2022/05/17 10:24:27;457435.00;1.52;788.57;12842.00;0.04;22.87;;;;;30.60;1.00;;;;;;2272677;61;1915;-88
2022/05/17 10:27:02;642375.00;2.14;1107.45;86840.00;0.29;150.85;;;;;31.00;1.00;;;;;;2272757;61;1076;-88